createdAt,value
2017-04-17T00:00:29.052Z,74.03
2017-04-17T00:01:38.917Z,73.55
2017-04-17T00:02:49.175Z,73.55
2017-04-17T00:03:59.548Z,73.65
2017-04-17T00:05:09.627Z,73.65
2017-04-17T00:06:19.396Z,73.74
2017-04-17T00:07:29.572Z,73.46
2017-04-17T00:08:39.397Z,74.12
2017-04-17T00:09:49.612Z,74.12
2017-04-17T00:10:59.696Z,74.22
2017-04-17T00:12:09.561Z,73.65
2017-04-17T00:13:19.346Z,74.03
2017-04-17T00:14:29.479Z,74.22
2017-04-17T00:15:39.854Z,74.03
2017-04-17T00:16:49.919Z,74.6
2017-04-17T00:18:00.148Z,74.22
2017-04-17T00:19:10.223Z,74.51
2017-04-17T00:20:20.312Z,74.22
2017-04-17T00:21:30.722Z,74.31
2017-04-17T00:22:40.789Z,74.41
2017-04-17T00:23:50.309Z,74.31
2017-04-17T00:25:00.452Z,74.22
2017-04-17T00:26:10.246Z,74.51
2017-04-17T00:27:20.651Z,74.69
2017-04-17T00:28:30.425Z,74.88
2017-04-17T00:29:40.500Z,74.69
2017-04-17T00:30:49.577Z,75.07
2017-04-17T00:31:59.366Z,75.07
2017-04-17T00:33:09.816Z,75.45
2017-04-17T00:34:19.982Z,75.36
2017-04-17T00:35:30.165Z,75.07
2017-04-17T00:36:39.578Z,75.64
2017-04-17T00:37:49.374Z,75.36
2017-04-17T00:38:59.421Z,75.55
2017-04-17T00:40:09.477Z,76.03
2017-04-17T00:41:19.543Z,75.84
2017-04-17T00:42:29.078Z,75.84
2017-04-17T00:43:39.158Z,75.74
2017-04-17T00:44:49.630Z,75.64
2017-04-17T00:45:59.693Z,75.84
2017-04-17T00:47:09.815Z,76.03
2017-04-17T00:48:19.895Z,75.64
2017-04-17T00:49:29.962Z,75.84
2017-04-17T00:50:40.366Z,75.74
2017-04-17T00:51:50.433Z,75.74
2017-04-17T00:53:00.195Z,75.64
2017-04-17T00:54:10.335Z,75.64
2017-04-17T00:55:20.451Z,75.45
2017-04-17T00:56:30.823Z,75.84
2017-04-17T00:57:40.521Z,76.03
2017-04-17T00:58:50.259Z,75.36
2017-04-17T00:59:59.674Z,76.03
2017-04-17T01:01:09.768Z,75.84
2017-04-17T01:02:20.142Z,75.74
2017-04-17T01:03:30.319Z,75.84
2017-04-17T01:04:40.051Z,75.84
2017-04-17T01:05:50.159Z,75.74
2017-04-17T01:06:59.947Z,76.03
2017-04-17T01:08:10.024Z,76.03
2017-04-17T01:09:20.210Z,76.12
2017-04-17T01:10:30.374Z,76.03
2017-04-17T01:11:40.493Z,75.74
2017-04-17T01:12:50.615Z,76.12
2017-04-17T01:14:00.985Z,75.93
2017-04-17T01:15:11.064Z,76.03
2017-04-17T01:16:21.176Z,75.64
2017-04-17T01:17:30.968Z,76.12
2017-04-17T01:18:41.143Z,75.55
2017-04-17T01:19:51.247Z,75.74
2017-04-17T01:21:01.321Z,76.21
2017-04-17T01:22:11.065Z,76.21
2017-04-17T01:23:20.805Z,76.12
2017-04-17T01:24:30.585Z,76.31
2017-04-17T01:25:41.090Z,76.31
2017-04-17T01:26:50.824Z,76.4
2017-04-17T01:28:00.563Z,76.4
2017-04-17T01:29:10.641Z,76.69
2017-04-17T01:30:20.383Z,76.59
2017-04-17T01:31:30.443Z,76.59
2017-04-17T01:32:40.535Z,76.5
2017-04-17T01:33:50.628Z,76.12
2017-04-17T01:35:00.711Z,76.69
2017-04-17T01:36:10.818Z,76.31
2017-04-17T01:37:20.859Z,76.4
2017-04-17T01:38:30.725Z,76.4
2017-04-17T01:39:40.485Z,76.4
2017-04-17T01:40:50.360Z,76.4
2017-04-17T01:41:59.449Z,76.31
2017-04-17T01:43:09.495Z,76.5
2017-04-17T01:44:19.650Z,76.5
2017-04-17T01:45:30.138Z,76.88
2017-04-17T01:46:39.932Z,76.78
2017-04-17T01:47:49.944Z,76.88
2017-04-17T01:48:59.699Z,76.88
2017-04-17T01:50:09.757Z,76.88
2017-04-17T01:51:19.228Z,76.88
2017-04-17T01:52:29.058Z,76.78
2017-04-17T01:54:11.226Z,76.97
2017-04-17T01:55:21.051Z,76.78
2017-04-17T01:56:30.776Z,77.03
2017-04-17T01:57:40.561Z,76.97
2017-04-17T01:58:50.296Z,77.26
2017-04-17T02:00:00.797Z,76.97
2017-04-17T02:01:10.992Z,76.59
2017-04-17T02:02:20.773Z,76.69
2017-04-17T02:03:30.921Z,76.88
2017-04-17T02:04:40.859Z,76.4
2017-04-17T02:05:51.461Z,76.4
2017-04-17T02:07:01.550Z,76.69
2017-04-17T02:08:11.293Z,76.59
2017-04-17T02:09:21.470Z,76.88
2017-04-17T02:10:30.882Z,76.88
2017-04-17T02:11:41.321Z,76.78
2017-04-17T02:12:51.536Z,76.59
2017-04-17T02:14:00.951Z,76.69
2017-04-17T02:15:10.690Z,76.59
2017-04-17T02:16:20.821Z,76.4
2017-04-17T02:17:30.868Z,76.59
2017-04-17T02:18:40.609Z,76.69
2017-04-17T02:19:50.724Z,76.21
2017-04-17T02:21:00.467Z,76.4
2017-04-17T02:22:10.276Z,76.21
2017-04-17T02:23:20.699Z,76.4
2017-04-17T02:24:30.768Z,76.88
2017-04-17T02:25:40.512Z,76.97
2017-04-17T02:26:50.660Z,76.88
2017-04-17T02:28:00.109Z,76.5
2017-04-17T02:29:10.512Z,76.69
2017-04-17T02:30:20.574Z,76.4
2017-04-17T02:31:30.355Z,76.59
2017-04-17T02:32:40.088Z,76.4
2017-04-17T02:33:50.158Z,76.4
2017-04-17T02:35:00.239Z,76.88
2017-04-17T02:36:09.973Z,76.78
2017-04-17T02:37:19.779Z,76.78
2017-04-17T02:38:29.870Z,76.88
2017-04-17T02:39:39.939Z,76.88
2017-04-17T02:40:50.033Z,76.69
2017-04-17T02:42:00.154Z,76.69
2017-04-17T02:43:09.943Z,76.78
2017-04-17T02:44:19.682Z,76.88
2017-04-17T02:45:29.822Z,76.88
2017-04-17T02:46:40.359Z,76.78
2017-04-17T02:47:50.487Z,76.97
2017-04-17T02:49:00.566Z,77.07
2017-04-17T02:50:10.649Z,76.97
2017-04-17T02:51:20.782Z,76.88
2017-04-17T02:52:31.216Z,76.78
2017-04-17T02:53:41.293Z,76.78
2017-04-17T02:54:50.786Z,76.59
2017-04-17T02:56:00.876Z,76.78
2017-04-17T02:57:10.695Z,76.78
2017-04-17T02:58:21.163Z,76.88
2017-04-17T02:59:30.988Z,76.78
2017-04-17T03:00:41.098Z,76.4
2017-04-17T03:01:51.288Z,76.5
2017-04-17T03:03:01.354Z,76.69
2017-04-17T03:04:11.740Z,76.69
2017-04-17T03:05:21.801Z,76.88
2017-04-17T03:06:31.597Z,76.5
2017-04-17T03:07:42.031Z,76.69
2017-04-17T03:08:52.340Z,76.5
2017-04-17T03:10:01.712Z,76.69
2017-04-17T03:11:11.445Z,76.69
2017-04-17T03:12:21.534Z,76.59
2017-04-17T03:13:31.509Z,76.69
2017-04-17T03:14:41.622Z,76.78
2017-04-17T03:15:52.037Z,76.12
2017-04-17T03:17:01.855Z,76.59
2017-04-17T03:18:11.924Z,76.78
2017-04-17T03:19:21.982Z,76.78
2017-04-17T03:20:32.199Z,76.78
2017-04-17T03:21:42.301Z,76.78
2017-04-17T03:22:51.759Z,76.4
2017-04-17T03:24:01.895Z,76.78
2017-04-17T03:25:12.010Z,76.78
2017-04-17T03:26:21.737Z,76.4
2017-04-17T03:27:31.855Z,76.78
2017-04-17T03:28:41.677Z,76.4
2017-04-17T03:29:51.737Z,76.59
2017-04-17T03:31:01.130Z,76.78
2017-04-17T03:32:11.261Z,76.69
2017-04-17T03:33:21.666Z,76.88
2017-04-17T03:34:31.422Z,77.07
2017-04-17T03:35:41.537Z,76.78
2017-04-17T03:36:51.617Z,77.26
2017-04-17T03:38:01.345Z,77.26
2017-04-17T03:39:12.076Z,77.26
2017-04-17T03:40:22.474Z,76.69
2017-04-17T03:41:32.041Z,76.69
2017-04-17T03:42:42.079Z,77.07
2017-04-17T03:43:51.836Z,77.36
2017-04-17T03:45:02.206Z,77.07
2017-04-17T03:46:12.270Z,77.07
2017-04-17T03:47:22.102Z,77.17
2017-04-17T03:48:32.271Z,77.26
2017-04-17T03:49:42.349Z,77.36
2017-04-17T03:50:52.389Z,77.36
2017-04-17T03:52:02.129Z,77.36
2017-04-17T03:53:12.264Z,77.64
2017-04-17T03:54:21.994Z,77.55
2017-04-17T03:55:32.107Z,77.17
2017-04-17T03:56:42.497Z,77.26
2017-04-17T03:57:52.552Z,77.17
2017-04-17T03:59:02.288Z,76.88
2017-04-17T04:00:12.566Z,77.55
2017-04-17T04:01:22.655Z,76.97
2017-04-17T04:02:32.712Z,77.07
2017-04-17T04:03:42.450Z,77.07
2017-04-17T04:04:52.293Z,77.07
2017-04-17T04:06:02.050Z,77.07
2017-04-17T04:07:12.114Z,77.55
2017-04-17T04:08:22.183Z,77.17
2017-04-17T04:09:31.917Z,76.78
2017-04-17T04:10:41.657Z,76.78
2017-04-17T04:11:51.444Z,76.97
2017-04-17T04:13:01.644Z,76.4
2017-04-17T04:14:11.784Z,76.31
2017-04-17T04:15:21.989Z,76.4
2017-04-17T04:16:32.079Z,76.21
2017-04-17T04:17:41.811Z,75.93
2017-04-17T04:18:51.894Z,75.84
2017-04-17T04:20:01.944Z,75.74
2017-04-17T04:21:11.364Z,75.93
2017-04-17T04:22:21.441Z,75.55
2017-04-17T04:23:31.284Z,75.64
2017-04-17T04:24:41.402Z,75.74
2017-04-17T04:25:51.104Z,75.84
2017-04-17T04:27:00.562Z,75.84
2017-04-17T04:28:10.301Z,75.74
2017-04-17T04:29:20.363Z,75.45
2017-04-17T04:30:30.100Z,75.64
2017-04-17T04:31:39.803Z,75.45
2017-04-17T04:32:50.002Z,75.26
2017-04-17T04:33:59.809Z,75.17
2017-04-17T04:35:09.612Z,75.17
2017-04-17T04:36:19.693Z,75.26
2017-04-17T04:37:29.775Z,75.45
2017-04-17T04:38:39.199Z,75.36
2017-04-17T04:39:48.941Z,75.17
2017-04-17T04:40:59.026Z,75.17
2017-04-17T04:42:09.112Z,75.07
2017-04-17T04:43:19.146Z,74.98
2017-04-17T04:44:28.936Z,75.07
2017-04-17T04:45:38.659Z,75.17
2017-04-17T04:46:48.828Z,75.07
2017-04-17T04:47:58.588Z,74.98
2017-04-17T04:49:09.132Z,74.88
2017-04-17T04:50:19.294Z,74.98
2017-04-17T04:51:29.025Z,74.98
2017-04-17T04:52:38.438Z,74.6
2017-04-17T04:53:48.541Z,74.79
2017-04-17T04:54:59.024Z,74.79
2017-04-17T04:56:08.771Z,74.51
2017-04-17T04:57:18.935Z,74.51
2017-04-17T04:58:28.673Z,74.69
2017-04-17T04:59:38.417Z,74.31
2017-04-17T05:00:48.572Z,74.22
2017-04-17T05:01:57.984Z,74.22
2017-04-17T05:03:08.078Z,74.41
2017-04-17T05:04:17.479Z,74.41
2017-04-17T05:05:27.688Z,74.51
2017-04-17T05:06:37.731Z,74.22
2017-04-17T05:07:47.808Z,74.12
2017-04-17T05:08:57.262Z,74.22
2017-04-17T05:10:07.326Z,73.84
2017-04-17T05:11:17.107Z,73.84
2017-04-17T05:12:27.491Z,74.12
2017-04-17T05:13:37.566Z,74.12
2017-04-17T05:14:47.784Z,73.55
2017-04-17T05:15:58.030Z,73.59
2017-04-17T05:17:08.172Z,74.16
2017-04-17T05:18:18.321Z,73.88
2017-04-17T05:19:28.070Z,73.78
2017-04-17T05:20:38.170Z,73.97
2017-04-17T05:21:48.238Z,73.69
2017-04-17T05:22:58.093Z,74.07
2017-04-17T05:24:08.484Z,73.97
2017-04-17T05:25:18.600Z,73.97
2017-04-17T05:26:28.787Z,73.49
2017-04-17T05:27:38.921Z,73.59
2017-04-17T05:28:48.707Z,73.78
2017-04-17T05:29:58.457Z,73.4
2017-04-17T05:31:08.638Z,73.59
2017-04-17T05:32:18.731Z,73.49
2017-04-17T05:33:28.857Z,73.78
2017-04-17T05:34:38.968Z,73.49
2017-04-17T05:35:49.329Z,73.21
2017-04-17T05:36:58.738Z,73.59
2017-04-17T05:38:08.467Z,73.4
2017-04-17T05:39:17.583Z,73.59
2017-04-17T05:40:26.985Z,73.11
2017-04-17T05:41:37.017Z,73.59
2017-04-17T05:42:46.773Z,73.02
2017-04-17T05:43:56.670Z,73.11
2017-04-17T05:45:06.728Z,73.21
2017-04-17T05:46:16.879Z,73.3
2017-04-17T05:47:27.263Z,73.59
2017-04-17T05:48:37.445Z,73.59
2017-04-17T05:49:47.631Z,73.21
2017-04-17T05:50:57.731Z,73.21
2017-04-17T05:52:07.878Z,73.4
2017-04-17T05:53:18.261Z,73.59
2017-04-17T05:54:27.669Z,73.49
2017-04-17T05:55:37.436Z,73.49
2017-04-17T05:56:47.513Z,73.78
2017-04-17T05:57:57.580Z,73.69
2017-04-17T05:59:07.948Z,73.4
2017-04-17T06:00:18.037Z,73.4
2017-04-17T06:01:27.778Z,73.11
2017-04-17T06:02:37.951Z,73.21
2017-04-17T06:03:47.694Z,73.11
2017-04-17T06:04:58.204Z,73.02
2017-04-17T06:06:08.330Z,72.92
2017-04-17T06:07:18.392Z,72.96
2017-04-17T06:08:28.485Z,72.86
2017-04-17T06:09:38.361Z,72.64
2017-04-17T06:10:48.106Z,72.86
2017-04-17T06:11:57.834Z,72.67
2017-04-17T06:13:07.616Z,72.11
2017-04-17T06:14:17.360Z,72.01
2017-04-17T06:15:27.127Z,71.25
2017-04-17T06:16:37.509Z,71.34
2017-04-17T06:17:47.254Z,71.82
2017-04-17T06:18:57.055Z,71.82
2017-04-17T06:20:06.496Z,71.38
2017-04-17T06:21:16.247Z,71.53
2017-04-17T06:22:26.292Z,70.52
2017-04-17T06:23:36.356Z,70.14
2017-04-17T06:24:46.530Z,69.48
2017-04-17T06:25:56.333Z,69.19
2017-04-17T06:27:06.460Z,68.71
2017-04-17T06:28:16.516Z,68.9
2017-04-17T06:29:25.930Z,68.62
2017-04-17T06:30:35.685Z,69.1
2017-04-17T06:31:45.796Z,68.43
2017-04-17T06:32:56.033Z,67.57
2017-04-17T06:34:06.098Z,68.15
2017-04-17T06:35:16.219Z,68.05
2017-04-17T06:36:26.113Z,68.15
2017-04-17T06:37:36.189Z,67.57
2017-04-17T06:38:45.834Z,67.76
2017-04-17T06:39:56.076Z,68.05
2017-04-17T06:41:06.418Z,67.57
2017-04-17T06:42:16.554Z,67.95
2017-04-17T06:43:26.298Z,67.67
2017-04-17T06:44:36.212Z,67.8
2017-04-17T06:45:46.250Z,67.7
2017-04-17T06:46:56.001Z,67.61
2017-04-17T06:48:06.070Z,66.46
2017-04-17T06:49:15.812Z,65.8
2017-04-17T06:50:25.589Z,66.08
2017-04-17T06:51:35.951Z,65.61
2017-04-17T06:52:46.173Z,65.8
2017-04-17T06:53:56.283Z,66.08
2017-04-17T06:55:06.383Z,66.56
2017-04-17T06:56:16.825Z,66.43
2017-04-17T06:57:26.878Z,66.62
2017-04-17T06:58:36.622Z,66.56
2017-04-17T06:59:46.741Z,66.08
2017-04-17T07:00:56.806Z,66.05
2017-04-17T07:02:06.546Z,66.05
2017-04-17T07:03:16.943Z,66.43
2017-04-17T07:04:27.066Z,66.72
2017-04-17T07:05:37.150Z,66.72
2017-04-17T07:06:47.348Z,65.95
2017-04-17T07:07:57.416Z,66.14
2017-04-17T07:09:07.847Z,66.33
2017-04-17T07:10:17.927Z,66.62
2017-04-17T07:11:28.050Z,66.43
2017-04-17T07:12:38.124Z,66.33
2017-04-17T07:13:48.368Z,66.33
2017-04-17T07:14:58.804Z,66.62
2017-04-17T07:16:09.072Z,66.33
2017-04-17T07:17:19.147Z,66.91
2017-04-17T07:18:29.495Z,67.19
2017-04-17T07:19:39.589Z,67.19
2017-04-17T07:20:49.966Z,66.43
2017-04-17T07:21:59.393Z,66.05
2017-04-17T07:23:09.175Z,66.05
2017-04-17T07:24:19.031Z,65.95
2017-04-17T07:25:29.120Z,66.05
2017-04-17T07:26:39.241Z,65.95
2017-04-17T07:27:49.012Z,65.67
2017-04-17T07:28:59.107Z,65.58
2017-04-17T07:30:09.199Z,65.1
2017-04-17T07:31:19.352Z,64.62
2017-04-17T07:32:29.797Z,65
2017-04-17T07:33:39.873Z,65.38
2017-04-17T07:34:49.658Z,65.19
2017-04-17T07:35:59.422Z,65.19
2017-04-17T07:37:09.566Z,65.1
2017-04-17T07:38:19.948Z,65.29
2017-04-17T07:39:30.061Z,65.48
2017-04-17T07:40:40.152Z,64.72
2017-04-17T07:41:49.948Z,64.56
2017-04-17T07:43:00.066Z,64.28
2017-04-17T07:44:10.496Z,64.18
2017-04-17T07:45:20.577Z,64.47
2017-04-17T07:46:30.332Z,63.99
2017-04-17T07:47:40.080Z,63.99
2017-04-17T07:48:49.834Z,63.6
2017-04-17T07:50:00.223Z,63.7
2017-04-17T07:51:09.774Z,62.37
2017-04-17T07:52:19.851Z,61.9
2017-04-17T07:53:29.652Z,62.18
2017-04-17T07:54:39.775Z,62.56
2017-04-17T07:55:50.147Z,62.46
2017-04-17T07:57:00.263Z,62.21
2017-04-17T07:58:10.011Z,61.83
2017-04-17T07:59:20.205Z,62.4
2017-04-17T08:00:30.279Z,61.83
2017-04-17T08:01:40.469Z,62.12
2017-04-17T08:02:50.553Z,62.12
2017-04-17T08:04:00.624Z,61.99
2017-04-17T08:05:10.704Z,62.12
2017-04-17T08:06:20.468Z,61.61
2017-04-17T08:07:30.894Z,61.22
2017-04-17T08:08:41.093Z,61.04
2017-04-17T08:09:51.223Z,61.51
2017-04-17T08:11:00.972Z,61.32
2017-04-17T08:12:10.723Z,61.51
2017-04-17T08:13:21.131Z,61.42
2017-04-17T08:14:30.927Z,61.51
2017-04-17T08:15:41.062Z,61.8
2017-04-17T08:16:51.200Z,62.18
2017-04-17T08:18:00.969Z,61.42
2017-04-17T08:19:11.015Z,61.32
2017-04-17T08:20:21.140Z,61.42
2017-04-17T08:21:31.217Z,61.61
2017-04-17T08:22:41.111Z,61.9
2017-04-17T08:23:50.855Z,60.75
2017-04-17T08:25:01.404Z,60.75
2017-04-17T08:26:11.120Z,60.37
2017-04-17T08:27:21.429Z,60.56
2017-04-17T08:28:31.228Z,59.8
2017-04-17T08:29:41.335Z,59.13
2017-04-17T08:30:52.566Z,59.51
2017-04-17T08:32:03.889Z,59.54
2017-04-17T08:33:15.217Z,59.74
2017-04-17T08:34:25.600Z,59.26
2017-04-17T08:35:36.345Z,59.74
2017-04-17T08:36:47.353Z,59.06
2017-04-17T08:37:58.154Z,58.59
2017-04-17T08:39:08.535Z,57.67
2017-04-17T08:40:19.028Z,57.03
2017-04-17T08:41:29.077Z,56.65
2017-04-17T08:42:39.579Z,55.05
2017-04-17T08:43:50.108Z,55.05
2017-04-17T08:45:00.857Z,54.19
2017-04-17T08:46:11.338Z,52.59
2017-04-17T08:47:21.739Z,52.12
2017-04-17T08:48:32.816Z,51.57
2017-04-17T08:49:42.958Z,51.09
2017-04-17T08:50:53.665Z,50.64
2017-04-17T08:52:05.362Z,48.66
2017-04-17T08:53:16.208Z,48.39
2017-04-17T08:54:27.291Z,48.23
2017-04-17T08:55:37.722Z,46.44
2017-04-17T08:56:48.746Z,44.47
2017-04-17T08:57:59.793Z,41.61
2017-04-17T08:59:10.573Z,40.58
2017-04-17T09:00:20.928Z,39.76
2017-04-17T09:01:31.325Z,39.39
2017-04-17T09:02:42.053Z,36.53
2017-04-17T09:03:53.455Z,36.99
2017-04-17T09:05:04.232Z,35.91
2017-04-17T09:06:14.892Z,34.07
2017-04-17T09:07:25.710Z,34.9
2017-04-17T09:08:36.118Z,35.75
2017-04-17T09:09:46.846Z,36.21
2017-04-17T09:10:57.282Z,37.24
2017-04-17T09:12:07.978Z,37.23
2017-04-17T09:13:18.910Z,37.88
2017-04-17T09:14:29.472Z,39.39
2017-04-17T09:15:39.894Z,39.39
2017-04-17T09:16:50.664Z,39.2
2017-04-17T09:18:01.670Z,38.37
2017-04-17T09:19:12.108Z,38.18
2017-04-17T09:20:22.539Z,37.99
2017-04-17T09:21:32.526Z,37.24
2017-04-17T09:22:42.994Z,37.9
2017-04-17T09:23:53.738Z,36.38
2017-04-17T09:25:04.569Z,36.22
2017-04-17T09:26:15.325Z,34.14
2017-04-17T09:27:26.117Z,34.25
2017-04-17T09:28:36.516Z,34.63
2017-04-17T09:29:47.555Z,34.53
2017-04-17T09:30:58.423Z,33.39
2017-04-17T09:32:08.816Z,32.73
2017-04-17T09:33:19.344Z,30.73
2017-04-17T09:34:29.822Z,29.13
2017-04-17T09:35:40.558Z,27.8
2017-04-17T09:36:51.288Z,25.7
2017-04-17T09:38:01.332Z,25.99
2017-04-17T09:39:12.055Z,24.85
2017-04-17T09:40:22.816Z,24.86
2017-04-17T09:41:33.570Z,23.15
2017-04-17T09:42:44.437Z,24.01
2017-04-17T09:43:55.210Z,22.19
2017-04-17T09:45:05.940Z,21.8
2017-04-17T09:46:16.673Z,21.52
2017-04-17T09:47:27.413Z,21.04
2017-04-17T09:48:37.134Z,21.53
2017-04-17T09:49:47.542Z,21.24
2017-04-17T09:50:57.599Z,20.47
2017-04-17T09:52:08.471Z,21.71
2017-04-17T09:53:19.610Z,22.85
2017-04-17T09:54:30.359Z,23.8
2017-04-17T09:55:41.120Z,22.73
2017-04-17T09:56:51.302Z,23.31
2017-04-17T09:58:01.760Z,23.79
2017-04-17T09:59:12.500Z,23.13
2017-04-17T10:00:22.898Z,23.51
2017-04-17T10:01:34.537Z,22.26
2017-04-17T10:02:44.928Z,22.05
2017-04-17T10:03:55.696Z,22.03
2017-04-17T10:05:07.684Z,22.49
2017-04-17T10:06:18.471Z,23.73
2017-04-17T10:07:29.848Z,24.3
2017-04-17T10:08:40.193Z,24.11
2017-04-17T10:09:50.695Z,23.63
2017-04-17T10:11:01.906Z,22.96
2017-04-17T10:12:12.369Z,22.59
2017-04-17T10:13:23.121Z,22.12
2017-04-17T10:14:33.595Z,21.06
2017-04-17T10:15:45.007Z,20.88
2017-04-17T10:16:55.695Z,21.94
2017-04-17T10:18:06.175Z,21.17
2017-04-17T10:19:17.077Z,20.79
2017-04-17T10:20:27.194Z,20.79
2017-04-17T10:21:37.820Z,20.61
2017-04-17T10:22:48.913Z,19.93
2017-04-17T10:23:59.749Z,19.18
2017-04-17T10:25:10.213Z,19.08
2017-04-17T10:26:21.022Z,19.27
2017-04-17T10:27:31.887Z,18.03
2017-04-17T10:28:43.233Z,18.8
2017-04-17T10:29:53.988Z,18.9
2017-04-17T10:31:04.752Z,18.7
2017-04-17T10:32:15.514Z,18.88
2017-04-17T10:33:25.914Z,18.22
2017-04-17T10:34:37.836Z,18.3
2017-04-17T10:35:48.042Z,19.08
2017-04-17T10:36:58.784Z,17.82
2017-04-17T10:38:09.249Z,18.1
2017-04-17T10:39:19.415Z,18.86
2017-04-17T10:40:30.310Z,19.15
2017-04-17T10:41:40.798Z,18.86
2017-04-17T10:42:51.682Z,19.15
2017-04-17T10:44:02.481Z,18.86
2017-04-17T10:45:13.264Z,18.95
2017-04-17T10:46:24.247Z,18.29
2017-04-17T10:47:35.081Z,18.77
2017-04-17T10:48:45.921Z,19.84
2017-04-17T10:49:56.747Z,20.03
2017-04-17T10:51:07.477Z,19.37
2017-04-17T10:52:18.189Z,19.27
2017-04-17T10:53:28.955Z,19.28
2017-04-17T10:54:40.657Z,19.76
2017-04-17T10:55:51.419Z,19.46
2017-04-17T10:57:02.147Z,19.47
2017-04-17T10:58:13.381Z,20.7
2017-04-17T10:59:23.800Z,21.65
2017-04-17T11:00:34.422Z,23.27
2017-04-17T11:01:44.974Z,24.03
2017-04-17T11:02:55.392Z,24.5
2017-04-17T11:04:06.440Z,24.77
2017-04-17T11:05:17.180Z,25.45
2017-04-17T11:06:27.602Z,25.92
2017-04-17T11:07:37.992Z,27.34
2017-04-17T11:08:47.779Z,28
2017-04-17T11:09:58.530Z,28.66
2017-04-17T11:11:09.309Z,29.13
2017-04-17T11:12:20.047Z,28.92
2017-04-17T11:13:30.576Z,29.5
2017-04-17T11:14:41.000Z,30.35
2017-04-17T11:15:52.040Z,30.35
2017-04-17T11:17:02.105Z,30.62
2017-04-17T11:18:12.850Z,30.62
2017-04-17T11:19:23.297Z,30.44
2017-04-17T11:20:34.057Z,30.18
2017-04-17T11:21:44.785Z,28.85
2017-04-17T11:22:55.582Z,28.67
2017-04-17T11:24:06.417Z,27.92
2017-04-17T11:25:16.860Z,26.97
2017-04-17T11:26:27.600Z,25.94
2017-04-17T11:27:38.777Z,25.67
2017-04-17T11:28:49.685Z,24.99
2017-04-17T11:30:00.217Z,24.63
2017-04-17T11:31:11.182Z,21.94
2017-04-17T11:32:21.963Z,21.66
2017-04-17T11:33:33.108Z,21.95
2017-04-17T11:34:43.510Z,21.75
2017-04-17T11:35:54.240Z,22.62
2017-04-17T11:37:05.039Z,22.72
2017-04-17T11:38:15.608Z,23.11
2017-04-17T11:39:26.300Z,21.96
2017-04-17T11:40:36.782Z,21.48
2017-04-17T11:41:46.868Z,21.47
2017-04-17T11:42:57.742Z,21.47
2017-04-17T11:44:08.478Z,19.64
2017-04-17T11:45:19.268Z,19.54
2017-04-17T11:46:30.012Z,20.12
2017-04-17T11:47:40.947Z,20.31
2017-04-17T11:48:51.355Z,19.65
2017-04-17T11:50:01.807Z,19.65
2017-04-17T11:51:12.923Z,17.91
2017-04-17T11:52:23.718Z,16.95
2017-04-17T11:53:35.100Z,17.53
2017-04-17T11:54:45.955Z,16.95
2017-04-17T11:55:56.779Z,16.66
2017-04-17T11:57:07.846Z,16.95
2017-04-17T11:58:18.437Z,17.52
2017-04-17T11:59:30.197Z,18.29
2017-04-17T12:00:41.038Z,18.29
2017-04-17T12:01:53.009Z,19.17
2017-04-17T12:03:04.172Z,18.49
2017-04-17T12:04:14.684Z,18.49
2017-04-17T12:05:25.158Z,18.01
2017-04-17T12:06:36.525Z,18.12
2017-04-17T12:07:47.306Z,17.35
2017-04-17T12:08:58.366Z,16.86
2017-04-17T12:10:09.295Z,16.09
2017-04-17T12:11:20.126Z,17.05
2017-04-17T12:12:30.949Z,17.61
2017-04-17T12:13:41.374Z,18.18
2017-04-17T12:14:53.444Z,19.03
2017-04-17T12:16:03.895Z,18.63
2017-04-17T12:17:14.780Z,19.01
2017-04-17T12:18:25.510Z,19.38
2017-04-17T12:19:36.257Z,19.77
2017-04-17T12:20:47.199Z,19.57
2017-04-17T12:21:57.922Z,19.67
2017-04-17T12:23:08.362Z,19.58
2017-04-17T12:24:20.164Z,19.77
2017-04-17T12:25:30.908Z,20.35
2017-04-17T12:26:41.672Z,20.74
2017-04-17T12:27:52.425Z,20.64
2017-04-17T12:29:04.171Z,20.17
2017-04-17T12:30:15.205Z,20.55
2017-04-17T12:31:25.350Z,20.85
2017-04-17T12:32:36.461Z,20.27
2017-04-17T12:33:48.149Z,20.65
2017-04-17T12:34:58.958Z,20.47
2017-04-17T12:36:09.718Z,21.05
2017-04-17T12:37:20.498Z,21.05
2017-04-17T12:38:31.186Z,21.06
2017-04-17T12:39:41.988Z,20.4
2017-04-17T12:40:53.763Z,19.53
2017-04-17T12:42:04.680Z,19.92
2017-04-17T12:43:15.458Z,20.59
2017-04-17T12:44:26.501Z,21.35
2017-04-17T12:45:37.253Z,22.22
2017-04-17T12:46:48.115Z,22.3
2017-04-17T12:47:58.859Z,22.69
2017-04-17T12:49:09.612Z,22.3
2017-04-17T12:50:20.651Z,22.58
2017-04-17T12:51:32.560Z,22.86
2017-04-17T12:52:43.386Z,23.05
2017-04-17T12:53:53.106Z,23.52
2017-04-17T12:55:03.826Z,23.61
2017-04-17T12:56:14.240Z,23.6
2017-04-17T12:57:24.970Z,24.46
2017-04-17T12:58:35.542Z,25.42
2017-04-17T12:59:47.406Z,25.71
2017-04-17T13:00:57.860Z,25.9
2017-04-17T13:02:08.975Z,25.98
2017-04-17T13:03:19.122Z,25.7
2017-04-17T13:04:29.841Z,25.98
2017-04-17T13:05:40.395Z,26.46
2017-04-17T13:06:51.134Z,26.26
2017-04-17T13:08:01.798Z,27.22
2017-04-17T13:09:13.583Z,27.41
2017-04-17T13:10:24.569Z,27.31
2017-04-17T13:11:35.313Z,27.12
2017-04-17T13:12:45.906Z,27.59
2017-04-17T13:13:56.610Z,27.49
2017-04-17T13:15:07.068Z,27.2
2017-04-17T13:16:17.871Z,27.68
2017-04-17T13:17:28.787Z,27.97
2017-04-17T13:18:39.541Z,27.97
2017-04-17T13:19:50.638Z,28.45
2017-04-17T13:21:01.393Z,28.63
2017-04-17T13:22:12.288Z,29.39
2017-04-17T13:23:23.033Z,29.86
2017-04-17T13:24:34.722Z,29.95
2017-04-17T13:25:45.452Z,30.15
2017-04-17T13:26:55.938Z,29.38
2017-04-17T13:28:07.283Z,28.61
2017-04-17T13:29:17.511Z,28.7
2017-04-17T13:30:28.206Z,28.52
2017-04-17T13:31:39.311Z,28.8
2017-04-17T13:32:50.142Z,29.38
2017-04-17T13:34:00.958Z,29.09
2017-04-17T13:35:11.683Z,28.52
2017-04-17T13:36:22.088Z,28.33
2017-04-17T13:37:33.141Z,27.94
2017-04-17T13:38:43.917Z,27.75
2017-04-17T13:39:54.312Z,27.38
2017-04-17T13:41:04.374Z,26.62
2017-04-17T13:42:14.642Z,26.33
2017-04-17T13:43:25.688Z,26.04
2017-04-17T13:44:36.433Z,26.23
2017-04-17T13:45:46.979Z,26.04
2017-04-17T13:46:57.719Z,25.75
2017-04-17T13:48:08.117Z,25.46
2017-04-17T13:49:19.195Z,25.46
2017-04-17T13:50:30.017Z,26.23
2017-04-17T13:51:40.424Z,25.56
2017-04-17T13:52:51.199Z,25.46
2017-04-17T13:54:02.031Z,25.37
2017-04-17T13:55:13.145Z,25.26
2017-04-17T13:56:23.888Z,25.36
2017-04-17T13:57:34.007Z,25.84
2017-04-17T13:58:44.993Z,25.55
2017-04-17T13:59:55.415Z,25.84
2017-04-17T14:01:05.981Z,25.82
2017-04-17T14:02:16.801Z,26.01
2017-04-17T14:03:28.533Z,27.26
2017-04-17T14:04:39.466Z,29.46
2017-04-17T14:05:49.869Z,31.93
2017-04-17T14:07:00.571Z,32.7
2017-04-17T14:08:11.968Z,33.36
2017-04-17T14:09:22.719Z,33.36
2017-04-17T14:10:33.786Z,34.59
2017-04-17T14:11:44.612Z,36.12
2017-04-17T14:12:55.301Z,38.39
2017-04-17T14:14:05.387Z,41.74
2017-04-17T14:15:15.498Z,44.1
2017-04-17T14:16:25.268Z,46.11
2017-04-17T14:17:35.505Z,48.28
2017-04-17T14:18:45.569Z,48.28
2017-04-17T14:19:55.660Z,48.18
2017-04-17T14:21:05.859Z,49.8
2017-04-17T14:22:15.722Z,49.33
2017-04-17T14:23:25.462Z,49.3
2017-04-17T14:24:36.160Z,50.76
2017-04-17T14:25:46.433Z,51.5
2017-04-17T14:26:56.546Z,51.88
2017-04-17T14:28:06.625Z,50.54
2017-04-17T14:29:16.533Z,49.78
2017-04-17T14:30:26.877Z,50.07
2017-04-17T14:31:36.308Z,50.35
2017-04-17T14:32:46.163Z,52.16
2017-04-17T14:33:56.404Z,52.55
2017-04-17T14:35:06.541Z,52.16
2017-04-17T14:36:17.126Z,52.26
2017-04-17T14:37:27.264Z,53.78
2017-04-17T14:38:37.031Z,54.17
2017-04-17T14:39:47.243Z,54.8
2017-04-17T14:40:56.990Z,55.09
2017-04-17T14:42:07.373Z,55.09
2017-04-17T14:43:17.187Z,54.33
2017-04-17T14:44:27.266Z,56.04
2017-04-17T14:45:37.366Z,56.71
2017-04-17T14:46:47.457Z,57
2017-04-17T14:47:57.952Z,58.21
2017-04-17T14:49:08.043Z,58.02
2017-04-17T14:50:17.880Z,58.4
2017-04-17T14:51:27.666Z,58.21
2017-04-17T14:52:37.425Z,59.06
2017-04-17T14:53:47.815Z,57.82
2017-04-17T14:54:57.924Z,58.11
2017-04-17T14:56:07.677Z,58.87
2017-04-17T14:57:17.805Z,58.87
2017-04-17T14:58:28.007Z,58.59
2017-04-17T14:59:38.423Z,57.26
2017-04-17T15:00:48.187Z,57.35
2017-04-17T15:01:58.302Z,56.9
2017-04-17T15:03:08.414Z,56.24
2017-04-17T15:04:18.639Z,55.95
2017-04-17T15:05:28.761Z,55.28
2017-04-17T15:06:38.888Z,55.19
2017-04-17T15:07:48.343Z,56.81
2017-04-17T15:08:58.633Z,56.9